Share

Tampico, México

3:25 PM CDT en Abril 23, 2014 (GMT -0500)
Gen Francisco Javier Mina (MMTM) Alt 79 ft | 22.30 °N, 97.87 °W | Change Station

Current weather conditions updated 29 minutes ago

Partly Cloudy
Parcialmente nublado
81 ° F
Sensación térmica 83 ° F
N
18
Viento Variable Viento desde SE
Amanecer 7:05 AM
Atardecer 7:54 PM
Luna Creciente menguante

Hoy se prevé un día Más frío que ayer.

Presión 29.84 pul
Visibilidad 8.0 Millas
Nubes Baja 1500 ft
Índice de calor 83 ° F
Punto de rocío 68 ° F
Humedad 65%
Precipitaciones 0.00 pul
Espesor de la nieve No disponible.
UV 10 de una escala de 16
Polen No disponible.
Calidad del aire No disponible.
Flu Activity No disponible.
METAR MMTM 231956Z 13016KT 8SM FEW015 27/20 A2984 RMK 8/100

More Conditions Fewer Conditions

Presión 29.84 pul
Visibilidad 8.0 Millas
Nubes Baja 1500 ft
Índice de calor 83 ° F
Punto de rocío 68 ° F
Humedad 65%
Precipitaciones 0.00 pul
Espesor de la nieve No disponible.
UV 10 de una escala de 16
Polen No disponible.
Calidad del aire No disponible.
Flu Activity No disponible.
METAR MMTM 231956Z 13016KT 8SM FEW015 27/20 A2984 RMK 8/100

More Conditions Fewer Conditions

10-Day Weather Forecast

Almanac

Astronomía

Apr. 23, 2014 Salida Puesta
Hora real 7:05 AM CDT 7:54 PM CDT
Crepúsculo civil 6:41 AM CDT 8:17 PM CDT
Crepúsculo náutico 6:14 AM CDT 8:45 PM CDT
Crepúsculo astronómico 5:46 AM CDT 9:13 PM CDT
Luna 2:54 AM CDT 2:45 PM CDT
Horas de luz 13h 36m
Horas de luz
12h 49m
Tomorrow will be 1m 9s longer.
Creciente menguante, 33% of the Moon is Illuminated
Hoy
Creciente menguante
Abr 29
Nueva
May 6
Cuarto creciente
May 14
Luna llena
May 21
Cuarto menguante

Extremos de hoy

Máximos del país Bajas del país

Community

  • Stunning Sunrise
    Stunning Sunrise
  • spring flowers
    spring flowers
  • Earth Day Spectrum Ove' Blue
    Earth Day Spectrum Ove' Blue
  • BARN B&W
    BARN B&W
  • April Sunset
    April Sunset

WunderPhotos

Upload Photos

1,704,402 ¡fotos cargadas!

WunderBlogs® & News

Nearby

Calidad del aire

Not available.

Grosos de nieve

Not available.

Temperaturas de aguas costeras

Lugar Temperatura
Sin partes meteorológicos de las estaciones

Actividad de terremotos

Ciudad Distance Mag. Tiempo y dato
No hay informes recientes de la actividad sísmica.
Magnitud mínima muestra es 2,5.

Estaciones meteorológicas cercanas

Ubicación de la estación Temp. Índice de calor Punto de rocío Humedad Viento Precip. Alt Actualizado Tipo
APRSWXNET Altamira , Tampico 83 ° F 87 ° F 70 ° F 66% Este  a  11 mph 0.00 pul / hr 72 ft 3:01 PM CDT MADIS
Altamira, Altamira 83.0 ° F 88 ° F 72 ° F 68% ENE  a  7.6 mph 0.00 pul / hr 72 ft 3:25 PM CDT Rapid Fire

Show More Stations Show Fewer Stations

What do you think?

We're not finished. Please let us know what you like, what you don't like, and what you are still missing.